Flight Track Log - Related Links

Times and Time Zones

All times are in EDT time to prevent confusion due to time zone crossing. See the SKW5550 flight status page for this flight to view local times or setup timezone preferences in your user account.

Time Position Orientation Groundspeed Altitude Reporting Facility
EDT Latitude Longitude Course Direction KTS MPH feet Rate Location/Type
Wed 07:58:01 AM 44.5392 -108.9936 28° Northeast 156 180 6,200  Level Salt Lake Center
Wed 07:59:02 AM 44.5844 -108.9872 North 191 220 8,300 2,033 Climbing Salt Lake Center
Wed 08:00:02 AM 44.6350 -108.9831 North 206 237 10,300 1,650 Climbing Salt Lake Center
Wed 08:01:02 AM 44.6108 -108.9097 115° Southeast 238 274 11,600 1,587 Climbing Salt Lake Center
Wed 08:02:03 AM 44.5183 -108.9050 178° South 269 310 13,500 1,587 Climbing Salt Lake Center
Wed 08:03:00 AM 44.6105 -108.9546 28° Northeast  Level FlightAware Approximate
Wed 08:03:03 AM 44.4369 -108.8586 158° South 307 353 14,800  Level Salt Lake Center
Wed 08:04:03 AM 44.3514 -108.8106 158° South 324 373 16,100 1,350 Climbing Salt Lake Center
Wed 08:05:03 AM 44.2628 -108.7583 157° South 338 389 17,500 1,438 Climbing Salt Lake Center
Wed 08:06:04 AM 44.1731 -108.7069 158° South 347 399 19,000 1,289 Climbing Salt Lake Center
Wed 08:07:04 AM 44.0825 -108.6547 157° South 351 404 20,100 992 Climbing Salt Lake Center
Wed 08:08:05 AM 43.9903 -108.6025 158° South 357 411 21,000 1,041 Climbing Salt Lake Center
Wed 08:09:05 AM 43.8950 -108.5469 157° South 370 426 22,200 1,050 Climbing Salt Lake Center
Wed 08:10:05 AM 43.7978 -108.4908 157° South 377 434 23,100 942 Climbing Salt Lake Center
Wed 08:11:06 AM 43.7000 -108.4358 158° South 381 438 24,100 843 Climbing Salt Lake Center
Wed 08:12:06 AM 43.6008 -108.3808 158° South 385 443 24,800 694 Climbing Salt Lake Center
Wed 08:13:07 AM 43.5000 -108.3231 157° South 392 451 25,500 694 Climbing Salt Lake Center
Wed 08:14:07 AM 43.4064 -108.2419 148° Southeast 399 459 26,200 750 Climbing Salt Lake Center
Wed 08:15:07 AM 43.3175 -108.1481 142° Southeast 403 464 27,000 694 Climbing Salt Lake Center
Wed 08:16:08 AM 43.2281 -108.0539 142° Southeast 406 467 27,600 545 Climbing Salt Lake Center
Wed 08:17:08 AM 43.1386 -107.9589 142° Southeast 408 470 28,100 496 Climbing Salt Lake Center
Wed 08:18:09 AM 43.0472 -107.8633 143° Southeast 413 475 28,600 496 Climbing Salt Lake Center
Wed 08:19:09 AM 42.9547 -107.7656 142° Southeast 419 482 29,100 545 Climbing Salt Lake Center
Wed 08:20:10 AM 42.8511 -107.6569 142° Southeast 419 482 29,700 446 Climbing Salt Lake Center
Wed 08:21:10 AM 42.7614 -107.5656 143° Southeast 419 482 30,000 347 Climbing Salt Lake Center
Wed 08:22:11 AM 42.6711 -107.4731 143° Southeast 422 486 30,400 446 Climbing Salt Lake Center
Wed 08:23:11 AM 42.5653 -107.3647 143° Southeast 426 490 30,900 298 Climbing Salt Lake Center
Wed 08:24:12 AM 42.4744 -107.2725 143° Southeast 425 489 31,000 50 Climbing Salt Lake Center
Wed 08:25:12 AM 42.3806 -107.1783 143° Southeast 434 499 31,000  Level Salt Lake Center
Wed 08:25:45 AM 42.3181 -107.1133 142° Southeast 441 507 31,000  Level Denver Center
Wed 08:26:46 AM 42.2214 -107.0181 144° Southeast 448 516 31,000  Level Denver Center
Wed 08:27:46 AM 42.1278 -106.9231 143° Southeast 441 507 31,000  Level Denver Center
Wed 08:28:47 AM 42.0156 -106.8111 143° Southeast 447 514 31,000  Level Denver Center
Wed 08:29:48 AM 41.9194 -106.7167 144° Southeast 447 514 31,000  Level Denver Center
Wed 08:30:49 AM 41.8253 -106.6222 143° Southeast 442 509 31,000  Level Denver Center
Wed 08:31:50 AM 41.7169 -106.5167 144° Southeast 433 498 31,000  Level Denver Center
Wed 08:32:51 AM 41.6183 -106.4186 143° Southeast 428 493 31,000  Level Denver Center
Wed 08:33:52 AM 41.5256 -106.3283 144° Southeast 430 495 31,000  Level Denver Center
Wed 08:34:53 AM 41.4347 -106.2392 144° Southeast 426 490 31,000  Level Denver Center
Wed 08:35:54 AM 41.3275 -106.1350 144° Southeast 428 493 31,000  Level Denver Center
Wed 08:36:55 AM 41.2358 -106.0478 144° Southeast 425 489 31,000  Level Denver Center
Wed 08:37:57 AM 41.1425 -105.9581 144° Southeast 430 495 31,000  Level Denver Center
Wed 08:38:58 AM 41.0336 -105.8533 144° Southeast 432 497 31,000 -590 Level Denver Center
Wed 08:39:59 AM 40.9367 -105.7603 144° Southeast 441 507 29,800 -1,377 Descending Denver Center
Wed 08:41:00 AM 40.8289 -105.6564 144° Southeast 469 540 28,200 -1,525 Descending Denver Center
Wed 08:42:01 AM 40.7239 -105.5575 144° Southeast 469 540 26,700 -1,525 Descending Denver Center
Wed 08:43:02 AM 40.6275 -105.4656 144° Southeast 439 505 25,100 -1,756 Descending Denver Center
Wed 08:44:04 AM 40.5583 -105.3561 130° Southeast 390 449 23,100 -1,902 Descending Denver Center
Wed 08:45:05 AM 40.4961 -105.2450 126° Southeast 378 435 21,200 -1,525 Descending Denver Center
Wed 08:46:06 AM 40.4078 -105.1719 148° Southeast 333 383 20,000 -1,672 Descending Denver Center
Wed 08:47:07 AM 40.3231 -105.1014 148° Southeast 334 384 17,800 -1,623 Descending Denver Center
Wed 08:48:08 AM 40.2622 -105.0544 150° Southeast 331 381 16,700 -1,073 Descending Denver Center
Wed 08:49:10 AM 40.1767 -104.9847 148° Southeast 291 335 15,600 -1,024 Descending Denver Center
Wed 08:50:11 AM 40.1069 -104.9297 149° Southeast 292 336 14,600 -1,033 Descending Denver Center
Wed 08:51:12 AM 40.0347 -104.8711 148° Southeast 283 326 13,500 -1,033 Descending Denver Center
Wed 08:52:13 AM 39.9667 -104.8172 149° Southeast 284 327 12,500 -984 Descending Denver Center
Wed 08:53:14 AM 39.8928 -104.8072 174° South 271 312 11,500 -732 Descending Denver Center
Wed 08:54:16 AM 39.8122 -104.8092 181° South 272 313 11,000 -293 Descending Denver Center
Wed 08:55:17 AM 39.7444 -104.8111 181° South 247 284 10,900 -689 Descending Denver Center
Wed 08:56:18 AM 39.6850 -104.7803 158° South 255 293 9,600 -1,033 Descending Denver Center
Wed 08:57:19 AM 39.7122 -104.7086 64° Northeast 221 254 8,800 -1,033 Descending Denver Center
Wed 08:58:20 AM 39.7603 -104.6897 17° North 179 206 7,500 -1,073 Descending Denver Center
Wed 08:59:22 AM 39.8022 -104.6878 North 154 177 6,600 -878 Descending Denver Center
Wed 09:00:23 AM 39.8450 -104.6872 North 146 168 5,700 -639 Descending Denver Center
Wed 09:01:24 AM 39.8800 -104.6869 360° North 132 152 5,300 -393 Descending Denver Center

Login

Don't have an account? Register now (free) for customized features, flight alerts, and more!